Time,TemperatureF,DewpointF,PressureIn,WindDirection,WindDirectionDegrees,WindSpeedMPH,WindSpeedGustMPH,Humidity,HourlyPrecipIn,Conditions,Clouds,dailyrainin,SoftwareType,DateUTC
2013-02-21 00:02:00,46.9,38.0,28.79,NW,315,0.0,0.0,71,0.00,,,0.00,open2300-1.11,2013-02-20 22:02:00,
2013-02-21 00:07:00,46.9,38.0,28.79,NW,315,0.0,0.0,71,0.00,,,0.00,open2300-1.11,2013-02-20 22:07:00,
2013-02-21 00:17:00,46.9,38.0,28.78,NW,315,0.0,0.0,71,0.00,,,0.00,open2300-1.11,2013-02-20 22:17:00,
2013-02-21 00:27:00,46.8,38.2,28.78,NW,315,0.0,0.0,72,0.00,,,0.00,open2300-1.11,2013-02-20 22:27:00,
2013-02-21 00:32:00,46.8,38.2,28.78,NW,315,0.0,0.0,72,0.00,,,0.00,open2300-1.11,2013-02-20 22:32:00,
2013-02-21 00:37:00,46.8,38.2,28.79,NW,315,0.0,0.0,72,0.00,,,0.00,open2300-1.11,2013-02-20 22:37:00,
2013-02-21 00:42:00,46.8,38.2,28.79,NW,315,0.0,0.0,72,0.00,,,0.00,open2300-1.11,2013-02-20 22:42:00,
2013-02-21 00:52:00,46.8,38.2,28.78,NW,315,0.0,0.0,72,0.00,,,0.00,open2300-1.11,2013-02-20 22:52:00,
2013-02-21 01:02:00,46.8,38.2,28.78,NW,315,0.0,0.0,72,0.00,,,0.00,open2300-1.11,2013-02-20 23:02:00,
2013-02-21 01:07:00,46.8,38.2,28.78,NW,315,0.0,0.0,72,0.00,,,0.00,open2300-1.11,2013-02-20 23:07:00,
2013-02-21 01:13:00,46.8,38.2,28.79,NW,315,0.0,0.0,72,0.00,,,0.00,open2300-1.11,2013-02-20 23:13:00,
2013-02-21 01:22:00,46.8,38.6,28.79,NW,315,0.0,0.0,73,0.00,,,0.00,open2300-1.11,2013-02-20 23:22:00,
2013-02-21 01:27:00,46.9,38.7,28.79,NW,315,0.0,0.0,73,0.00,,,0.00,open2300-1.11,2013-02-20 23:27:00,
2013-02-21 01:32:00,46.9,38.7,28.79,NW,315,0.0,0.0,73,0.00,,,0.00,open2300-1.11,2013-02-20 23:32:00,
2013-02-21 01:37:00,47.1,38.9,28.79,NW,315,0.0,0.0,73,0.00,,,0.00,open2300-1.11,2013-02-20 23:37:00,
2013-02-21 01:42:00,47.1,38.5,28.78,NW,315,0.0,0.0,72,0.00,,,0.00,open2300-1.11,2013-02-20 23:42:00,
2013-02-21 01:52:00,47.3,38.7,28.78,NW,315,0.0,0.0,72,0.00,,,0.00,open2300-1.11,2013-02-20 23:52:00,
2013-02-21 01:57:00,47.3,38.7,28.78,NW,315,0.0,0.0,72,0.00,,,0.00,open2300-1.11,2013-02-20 23:57:00,
2013-02-21 02:02:00,47.3,38.7,28.78,NW,315,0.0,0.0,72,0.00,,,0.00,open2300-1.11,2013-02-21 00:02:00,
2013-02-21 02:07:00,47.5,38.9,28.78,NW,315,0.0,0.0,72,0.00,,,0.00,open2300-1.11,2013-02-21 00:07:00,
2013-02-21 02:13:00,47.5,38.9,28.78,NW,315,0.0,0.0,72,0.00,,,0.00,open2300-1.11,2013-02-21 00:13:00,
2013-02-21 02:22:00,47.5,38.9,28.78,NW,315,0.0,0.0,72,0.00,,,0.00,open2300-1.11,2013-02-21 00:22:00,
2013-02-21 02:27:00,47.5,38.9,28.78,NW,315,0.0,0.0,72,0.00,,,0.00,open2300-1.11,2013-02-21 00:27:00,
2013-02-21 02:37:00,47.7,39.0,28.78,NW,315,0.0,0.0,72,0.00,,,0.00,open2300-1.11,2013-02-21 00:37:00,
2013-02-21 02:42:00,47.5,38.9,28.79,NW,315,0.0,0.0,72,0.00,,,0.00,open2300-1.11,2013-02-21 00:42:00,
2013-02-21 02:52:00,47.5,38.9,28.78,NW,315,0.0,0.0,72,0.00,,,0.00,open2300-1.11,2013-02-21 00:52:00,
2013-02-21 03:02:00,47.5,39.2,28.77,NW,315,0.0,0.0,73,0.00,,,0.00,open2300-1.11,2013-02-21 01:02:00,
2013-02-21 03:07:00,47.5,39.2,28.78,NW,315,0.0,0.0,73,0.00,,,0.00,open2300-1.11,2013-02-21 01:07:00,
2013-02-21 03:13:00,47.5,39.2,28.78,NW,315,0.0,0.0,73,0.00,,,0.00,open2300-1.11,2013-02-21 01:13:00,
2013-02-21 03:22:00,47.5,39.2,28.78,NW,315,0.0,0.0,73,0.00,,,0.00,open2300-1.11,2013-02-21 01:22:00,
2013-02-21 03:27:00,47.7,39.4,28.78,NW,315,0.0,0.0,73,0.00,,,0.00,open2300-1.11,2013-02-21 01:27:00,
2013-02-21 03:32:00,47.7,39.4,28.79,NW,315,0.0,0.0,73,0.00,,,0.00,open2300-1.11,2013-02-21 01:32:00,
2013-02-21 03:37:00,47.7,39.4,28.79,NW,315,0.0,0.0,73,0.00,,,0.00,open2300-1.11,2013-02-21 01:37:00,
2013-02-21 03:42:00,47.8,39.5,28.79,NW,315,0.0,0.0,73,0.00,,,0.00,open2300-1.11,2013-02-21 01:42:00,
2013-02-21 03:47:00,47.8,39.5,28.79,NW,315,0.0,0.0,73,0.00,,,0.00,open2300-1.11,2013-02-21 01:47:00,
2013-02-21 03:57:00,47.8,39.5,28.79,NW,315,0.0,0.0,73,0.00,,,0.00,open2300-1.11,2013-02-21 01:57:00,
2013-02-21 04:07:00,47.8,39.5,28.79,NW,315,0.0,0.0,73,0.00,,,0.00,open2300-1.11,2013-02-21 02:07:00,
2013-02-21 04:12:00,47.8,39.5,28.78,NW,315,0.0,0.0,73,0.00,,,0.00,open2300-1.11,2013-02-21 02:12:00,
2013-02-21 04:17:00,47.8,39.5,28.78,NW,315,0.0,0.0,73,0.00,,,0.00,open2300-1.11,2013-02-21 02:17:00,
2013-02-21 04:27:00,47.8,39.5,28.77,NW,315,0.0,0.0,73,0.00,,,0.00,open2300-1.11,2013-02-21 02:27:00,
2013-02-21 04:37:00,47.8,39.5,28.77,NW,315,0.0,0.0,73,0.00,,,0.00,open2300-1.11,2013-02-21 02:37:00,
2013-02-21 04:42:00,47.8,39.2,28.77,NW,315,0.0,0.0,72,0.00,,,0.00,open2300-1.11,2013-02-21 02:42:00,
2013-02-21 04:47:00,48.0,39.7,28.77,NW,315,0.0,0.0,73,0.00,,,0.00,open2300-1.11,2013-02-21 02:47:00,
2013-02-21 04:52:00,48.0,39.7,28.77,NW,315,0.0,0.0,73,0.00,,,0.00,open2300-1.11,2013-02-21 02:52:00,
2013-02-21 05:02:00,48.0,39.7,28.77,NW,315,0.0,0.0,73,0.00,,,0.00,open2300-1.11,2013-02-21 03:02:00,
2013-02-21 05:07:00,48.0,39.4,28.77,NW,315,0.0,0.0,72,0.00,,,0.00,open2300-1.11,2013-02-21 03:07:00,
2013-02-21 05:12:00,48.0,39.4,28.76,NW,315,0.0,0.0,72,0.00,,,0.00,open2300-1.11,2013-02-21 03:12:00,
2013-02-21 05:17:00,48.0,39.4,28.76,NW,315,0.0,0.0,72,0.00,,,0.00,open2300-1.11,2013-02-21 03:17:00,
2013-02-21 05:22:00,48.0,39.4,28.76,NW,315,0.0,0.0,72,0.00,,,0.00,open2300-1.11,2013-02-21 03:22:00,
2013-02-21 05:27:00,48.0,39.4,28.76,NW,315,0.0,0.0,72,0.00,,,0.00,open2300-1.11,2013-02-21 03:27:00,
2013-02-21 05:37:00,48.0,39.4,28.76,NW,315,0.0,0.0,72,0.00,,,0.00,open2300-1.11,2013-02-21 03:37:00,
2013-02-21 05:42:00,48.0,39.7,28.75,NNW,337,0.0,0.0,73,0.00,,,0.00,open2300-1.11,2013-02-21 03:42:00,
2013-02-21 05:47:00,48.0,39.7,28.75,NNW,337,0.0,0.0,73,0.00,,,0.00,open2300-1.11,2013-02-21 03:47:00,
2013-02-21 05:52:00,48.0,39.4,28.75,NNW,337,0.0,0.0,72,0.00,,,0.00,open2300-1.11,2013-02-21 03:52:00,
2013-02-21 06:02:00,48.0,39.7,28.75,NNW,337,0.0,0.0,73,0.00,,,0.00,open2300-1.11,2013-02-21 04:02:00,
2013-02-21 06:07:00,48.0,39.7,28.75,NNW,337,0.0,0.0,73,0.00,,,0.00,open2300-1.11,2013-02-21 04:07:00,
2013-02-21 06:17:00,48.0,39.7,28.75,North,0,0.0,0.0,73,0.00,,,0.00,open2300-1.11,2013-02-21 04:17:00,
2013-02-21 06:22:00,48.0,39.7,28.75,North,0,0.0,0.0,73,0.00,,,0.00,open2300-1.11,2013-02-21 04:22:00,
2013-02-21 06:27:00,48.0,39.7,28.75,North,0,0.0,0.0,73,0.00,,,0.00,open2300-1.11,2013-02-21 04:27:00,
2013-02-21 06:32:00,48.0,39.7,28.75,North,0,0.0,0.0,73,0.00,,,0.00,open2300-1.11,2013-02-21 04:32:00,
2013-02-21 06:39:00,48.0,39.7,28.75,North,0,0.0,0.0,73,0.00,,,0.00,open2300-1.11,2013-02-21 04:39:00,
2013-02-21 06:47:00,48.0,39.7,28.74,NNW,337,0.0,0.0,73,0.00,,,0.00,open2300-1.11,2013-02-21 04:47:00,
2013-02-21 06:52:00,48.2,39.9,28.74,NNW,337,0.0,0.0,73,0.00,,,0.00,open2300-1.11,2013-02-21 04:52:00,
2013-02-21 07:02:00,48.2,40.2,28.73,North,0,0.0,0.0,74,0.00,,,0.00,open2300-1.11,2013-02-21 05:02:00,
2013-02-21 07:07:00,48.4,40.4,28.74,North,0,0.0,0.0,74,0.00,,,0.00,open2300-1.11,2013-02-21 05:07:00,
2013-02-21 07:12:00,48.4,40.4,28.74,North,0,0.0,0.0,74,0.00,,,0.00,open2300-1.11,2013-02-21 05:12:00,
2013-02-21 07:17:00,48.4,40.4,28.74,North,0,0.0,0.0,74,0.00,,,0.00,open2300-1.11,2013-02-21 05:17:00,
2013-02-21 07:22:00,48.4,40.4,28.73,North,0,0.0,0.0,74,0.00,,,0.00,open2300-1.11,2013-02-21 05:22:00,
2013-02-21 07:32:00,48.4,40.4,28.74,North,0,0.0,0.0,74,0.00,,,0.00,open2300-1.11,2013-02-21 05:32:00,
2013-02-21 07:37:00,48.4,40.0,28.74,North,0,0.0,0.0,73,0.00,,,0.00,open2300-1.11,2013-02-21 05:37:00,
2013-02-21 07:42:00,48.6,40.6,28.74,NNW,337,0.0,0.0,74,0.00,,,0.00,open2300-1.11,2013-02-21 05:42:00,
2013-02-21 07:47:00,48.6,40.6,28.75,NNW,337,0.0,0.0,74,0.00,,,0.00,open2300-1.11,2013-02-21 05:47:00,
2013-02-21 08:02:00,48.7,40.8,28.76,NNW,337,0.0,0.0,74,0.00,,,0.00,open2300-1.11,2013-02-21 06:02:00,
2013-02-21 08:09:00,48.7,40.8,28.74,NNW,337,0.0,0.0,74,0.00,,,0.00,open2300-1.11,2013-02-21 06:09:00,
2013-02-21 08:17:00,48.7,40.8,28.75,WNW,292,0.0,0.0,74,0.00,,,0.00,open2300-1.11,2013-02-21 06:17:00,
2013-02-21 08:27:00,48.7,40.4,28.75,WNW,292,0.0,0.0,73,0.00,,,0.00,open2300-1.11,2013-02-21 06:27:00,
2013-02-21 08:32:00,48.9,40.6,28.76,WNW,292,0.0,0.0,73,0.00,,,0.00,open2300-1.11,2013-02-21 06:32:00,
2013-02-21 08:42:00,48.9,40.6,28.75,WNW,292,0.0,0.0,73,0.00,,,0.00,open2300-1.11,2013-02-21 06:42:00,
2013-02-21 08:52:00,48.9,40.6,28.76,WNW,292,0.0,0.0,73,0.00,,,0.00,open2300-1.11,2013-02-21 06:52:00,
2013-02-21 09:02:00,49.1,40.8,28.76,WNW,292,0.0,0.0,73,0.00,,,0.00,open2300-1.11,2013-02-21 07:02:00,
2013-02-21 09:07:00,49.1,41.3,28.76,WNW,292,0.0,0.0,74,0.00,,,0.00,open2300-1.11,2013-02-21 07:07:00,
2013-02-21 09:17:00,49.3,41.3,28.77,SW,225,0.0,0.0,74,0.00,,,0.00,open2300-1.11,2013-02-21 07:17:00,
2013-02-21 09:22:00,49.3,41.3,28.77,SW,225,0.0,0.0,74,0.00,,,0.00,open2300-1.11,2013-02-21 07:22:00,
2013-02-21 09:27:00,49.3,41.3,28.77,SW,225,0.0,0.0,74,0.00,,,0.00,open2300-1.11,2013-02-21 07:27:00,
2013-02-21 09:32:00,49.5,41.5,28.78,SW,225,0.0,0.0,74,0.00,,,0.00,open2300-1.11,2013-02-21 07:32:00,
2013-02-21 09:37:00,49.6,41.7,28.78,SW,225,0.0,0.0,74,0.00,,,0.00,open2300-1.11,2013-02-21 07:37:00,
2013-02-21 09:42:00,49.6,41.7,28.78,SW,225,0.0,0.0,74,0.00,,,0.00,open2300-1.11,2013-02-21 07:42:00,
2013-02-21 09:47:00,49.6,41.7,28.77,SW,225,0.0,0.0,74,0.00,,,0.00,open2300-1.11,2013-02-21 07:47:00,
2013-02-21 09:55:00,49.6,41.7,28.77,SW,225,0.0,0.0,74,0.00,,,0.00,open2300-1.11,2013-02-21 07:55:00,
2013-02-21 10:02:00,49.8,41.8,28.77,SW,225,0.0,0.0,74,0.00,,,0.00,open2300-1.11,2013-02-21 08:02:00,
2013-02-21 10:07:00,49.8,41.8,28.77,SW,225,0.0,0.0,74,0.00,,,0.00,open2300-1.11,2013-02-21 08:07:00,
2013-02-21 10:12:00,49.8,41.8,28.76,North,0,0.0,0.0,74,0.00,,,0.00,open2300-1.11,2013-02-21 08:12:00,
2013-02-21 10:17:00,50.2,42.2,28.76,North,0,0.0,0.0,74,0.00,,,0.00,open2300-1.11,2013-02-21 08:17:00,
2013-02-21 10:22:00,50.2,42.2,28.76,North,0,0.0,0.0,74,0.00,,,0.00,open2300-1.11,2013-02-21 08:22:00,
2013-02-21 10:32:00,50.2,42.2,28.76,NNW,337,0.0,0.0,74,0.00,,,0.00,open2300-1.11,2013-02-21 08:32:00,
2013-02-21 10:37:00,50.2,42.2,28.75,North,0,0.0,0.0,74,0.00,,,0.00,open2300-1.11,2013-02-21 08:37:00,
2013-02-21 10:42:00,50.2,42.2,28.76,North,0,0.0,0.0,74,0.00,,,0.00,open2300-1.11,2013-02-21 08:42:00,
2013-02-21 10:52:00,50.2,42.2,28.75,North,0,0.0,0.0,74,0.00,,,0.00,open2300-1.11,2013-02-21 08:52:00,
2013-02-21 10:57:00,50.2,42.2,28.75,North,0,0.0,0.0,74,0.00,,,0.00,open2300-1.11,2013-02-21 08:57:00,
2013-02-21 11:02:00,50.2,42.2,28.75,North,0,0.0,0.0,74,0.00,,,0.00,open2300-1.11,2013-02-21 09:02:00,
2013-02-21 11:07:00,50.2,42.2,28.76,North,0,0.0,0.0,74,0.00,,,0.00,open2300-1.11,2013-02-21 09:07:00,
2013-02-21 11:12:00,50.2,42.2,28.76,North,0,0.0,0.0,74,0.00,,,0.00,open2300-1.11,2013-02-21 09:12:00,
2013-02-21 11:17:00,50.2,42.2,28.76,NNW,337,0.0,0.0,74,0.00,,,0.00,open2300-1.11,2013-02-21 09:17:00,
2013-02-21 11:22:00,50.2,42.2,28.76,NNW,337,0.0,0.0,74,0.00,,,0.00,open2300-1.11,2013-02-21 09:22:00,
2013-02-21 11:27:00,50.2,42.2,28.76,NNW,337,0.0,0.0,74,0.00,,,0.00,open2300-1.11,2013-02-21 09:27:00,
2013-02-21 11:32:00,50.2,42.2,28.75,NNW,337,0.0,0.0,74,0.00,,,0.00,open2300-1.11,2013-02-21 09:32:00,
2013-02-21 11:42:00,50.2,42.2,28.74,NNW,337,0.0,0.0,74,0.00,,,0.00,open2300-1.11,2013-02-21 09:42:00,
2013-02-21 11:52:00,50.2,41.8,28.74,NNW,337,0.0,0.0,73,0.00,,,0.00,open2300-1.11,2013-02-21 09:52:00,
2013-02-21 11:57:00,50.2,41.8,28.74,NNW,337,0.0,0.0,73,0.00,,,0.00,open2300-1.11,2013-02-21 09:57:00,
2013-02-21 12:02:00,50.2,41.8,28.74,NNW,337,0.0,0.0,73,0.00,,,0.00,open2300-1.11,2013-02-21 10:02:00,
2013-02-21 12:07:00,50.2,42.2,28.74,NNW,337,0.0,0.0,74,0.00,,,0.00,open2300-1.11,2013-02-21 10:07:00,
2013-02-21 12:17:00,50.2,42.2,28.73,North,0,0.0,0.0,74,0.00,,,0.00,open2300-1.11,2013-02-21 10:17:00,
2013-02-21 12:22:00,50.2,42.2,28.72,North,0,0.0,0.0,74,0.00,,,0.00,open2300-1.11,2013-02-21 10:22:00,
2013-02-21 12:27:00,50.2,42.2,28.71,North,0,0.0,0.0,74,0.00,,,0.00,open2300-1.11,2013-02-21 10:27:00,
2013-02-21 12:37:00,50.2,41.8,28.71,North,0,0.0,0.0,73,0.00,,,0.00,open2300-1.11,2013-02-21 10:37:00,
2013-02-21 12:42:00,50.0,42.0,28.71,North,0,0.0,0.0,74,0.00,,,0.00,open2300-1.11,2013-02-21 10:42:00,
2013-02-21 12:47:00,50.2,42.2,28.70,North,0,0.0,0.0,74,0.00,,,0.00,open2300-1.11,2013-02-21 10:47:00,
2013-02-21 12:57:00,50.4,42.4,28.70,North,0,0.0,0.0,74,0.00,,,0.00,open2300-1.11,2013-02-21 10:57:00,
2013-02-21 13:02:00,50.7,42.7,28.70,North,0,0.0,0.0,74,0.00,,,0.00,open2300-1.11,2013-02-21 11:02:00,
2013-02-21 13:12:00,51.3,43.3,28.70,NNW,337,0.0,0.0,74,0.00,,,0.00,open2300-1.11,2013-02-21 11:12:00,
2013-02-21 13:17:00,51.4,43.1,28.70,NNW,337,0.0,0.0,73,0.00,,,0.00,open2300-1.11,2013-02-21 11:17:00,
2013-02-21 13:22:00,51.8,43.5,28.69,NNW,337,0.0,0.0,73,0.00,,,0.00,open2300-1.11,2013-02-21 11:22:00,
2013-02-21 13:27:00,52.0,43.6,28.69,NNW,337,0.0,0.0,73,0.00,,,0.00,open2300-1.11,2013-02-21 11:27:00,
2013-02-21 13:37:00,52.3,43.6,28.69,NNW,337,0.0,0.0,72,0.00,,,0.00,open2300-1.11,2013-02-21 11:37:00,
2013-02-21 13:42:00,52.5,43.8,28.69,NNW,337,0.0,0.0,72,0.00,,,0.00,open2300-1.11,2013-02-21 11:42:00,
2013-02-21 13:47:00,52.7,44.0,28.68,NNW,337,0.0,0.0,72,0.00,,,0.00,open2300-1.11,2013-02-21 11:47:00,
2013-02-21 13:52:00,52.9,43.8,28.68,West,270,0.0,0.0,71,0.00,,,0.00,open2300-1.11,2013-02-21 11:52:00,
2013-02-21 14:02:00,53.2,44.1,28.68,West,270,0.0,0.0,71,0.00,,,0.00,open2300-1.11,2013-02-21 12:02:00,
2013-02-21 14:08:00,53.2,44.1,28.68,West,270,0.0,0.0,71,0.00,,,0.00,open2300-1.11,2013-02-21 12:08:00,
2013-02-21 14:17:00,53.4,44.2,28.68,West,270,0.0,0.0,71,0.00,,,0.00,open2300-1.11,2013-02-21 12:17:00,
2013-02-21 14:22:00,53.4,44.2,28.68,West,270,0.0,0.0,71,0.00,,,0.00,open2300-1.11,2013-02-21 12:22:00,
2013-02-21 14:27:00,53.2,44.1,28.68,West,270,0.0,0.0,71,0.00,,,0.00,open2300-1.11,2013-02-21 12:27:00,
2013-02-21 14:32:00,52.9,43.8,28.67,West,270,0.0,0.0,71,0.00,,,0.00,open2300-1.11,2013-02-21 12:32:00,
2013-02-21 14:37:00,52.9,44.1,28.67,North,0,0.0,0.0,72,0.00,,,0.00,open2300-1.11,2013-02-21 12:37:00,
2013-02-21 14:42:00,52.9,44.1,28.67,North,0,0.0,0.0,72,0.00,,,0.00,open2300-1.11,2013-02-21 12:42:00,
2013-02-21 14:52:00,52.7,44.0,28.67,North,0,0.0,0.0,72,0.00,,,0.00,open2300-1.11,2013-02-21 12:52:00,
2013-02-21 14:57:00,52.5,43.8,28.67,North,0,0.0,0.0,72,0.00,,,0.00,open2300-1.11,2013-02-21 12:57:00,
2013-02-21 15:02:00,52.5,44.1,28.66,North,0,0.0,0.0,73,0.00,,,0.00,open2300-1.11,2013-02-21 13:02:00,
2013-02-21 15:12:00,52.3,44.0,28.65,North,0,0.0,0.0,73,0.00,,,0.00,open2300-1.11,2013-02-21 13:12:00,
2013-02-21 15:22:00,52.3,44.0,28.66,North,0,0.0,0.0,73,0.00,,,0.00,open2300-1.11,2013-02-21 13:22:00,
2013-02-21 15:27:00,52.5,44.5,28.65,North,0,0.0,0.0,74,0.00,,,0.00,open2300-1.11,2013-02-21 13:27:00,
2013-02-21 15:32:00,52.5,44.5,28.65,North,0,0.0,0.0,74,0.00,,,0.00,open2300-1.11,2013-02-21 13:32:00,
2013-02-21 15:37:00,52.3,44.3,28.65,North,0,0.0,0.0,74,0.00,,,0.00,open2300-1.11,2013-02-21 13:37:00,
2013-02-21 15:42:00,52.3,44.3,28.65,North,0,0.0,0.0,74,0.00,,,0.00,open2300-1.11,2013-02-21 13:42:00,
2013-02-21 15:52:00,52.2,44.5,28.65,North,0,0.0,0.0,75,0.00,,,0.00,open2300-1.11,2013-02-21 13:52:00,
2013-02-21 15:57:00,52.2,44.5,28.65,North,0,0.0,0.0,75,0.00,,,0.00,open2300-1.11,2013-02-21 13:57:00,
2013-02-21 16:02:00,52.0,44.3,28.64,North,0,0.0,0.0,75,0.00,,,0.00,open2300-1.11,2013-02-21 14:02:00,
2013-02-21 16:08:00,52.0,44.3,28.64,North,0,0.0,0.0,75,0.00,,,0.00,open2300-1.11,2013-02-21 14:08:00,
2013-02-21 16:17:00,51.8,44.2,28.64,North,0,0.0,0.0,75,0.00,,,0.00,open2300-1.11,2013-02-21 14:17:00,
2013-02-21 16:27:00,51.6,44.0,28.64,North,0,0.0,0.0,75,0.00,,,0.00,open2300-1.11,2013-02-21 14:27:00,
2013-02-21 16:32:00,51.6,44.0,28.64,North,0,0.0,0.0,75,0.00,,,0.00,open2300-1.11,2013-02-21 14:32:00,
2013-02-21 16:37:00,51.6,44.0,28.64,North,0,0.0,0.0,75,0.00,,,0.00,open2300-1.11,2013-02-21 14:37:00,
2013-02-21 16:42:00,51.6,44.0,28.63,North,0,0.0,0.0,75,0.00,,,0.00,open2300-1.11,2013-02-21 14:42:00,
2013-02-21 16:52:00,51.4,43.5,28.62,North,0,0.0,2.0,74,0.00,,,0.00,open2300-1.11,2013-02-21 14:52:00,
2013-02-21 16:57:00,51.6,43.6,28.63,North,0,0.0,0.0,74,0.00,,,0.00,open2300-1.11,2013-02-21 14:57:00,
2013-02-21 17:02:00,51.4,43.5,28.62,North,0,0.0,0.0,74,0.00,,,0.00,open2300-1.11,2013-02-21 15:02:00,
2013-02-21 17:08:00,51.4,43.8,28.62,North,0,0.0,0.0,75,0.00,,,0.00,open2300-1.11,2013-02-21 15:08:00,
2013-02-21 17:17:00,51.4,43.8,28.62,NNE,22,0.0,0.0,75,0.00,,,0.00,open2300-1.11,2013-02-21 15:17:00,
2013-02-21 17:22:00,51.4,43.8,28.61,NNE,22,0.0,0.0,75,0.00,,,0.00,open2300-1.11,2013-02-21 15:22:00,
2013-02-21 17:27:00,51.3,43.6,28.61,NNE,22,0.0,0.0,75,0.00,,,0.00,open2300-1.11,2013-02-21 15:27:00,
2013-02-21 17:32:00,51.3,43.6,28.61,NNE,22,0.0,0.0,75,0.00,,,0.00,open2300-1.11,2013-02-21 15:32:00,
2013-02-21 17:37:00,51.1,43.4,28.61,NNE,22,0.0,0.0,75,0.00,,,0.00,open2300-1.11,2013-02-21 15:37:00,
2013-02-21 17:47:00,51.1,43.4,28.61,NNE,22,0.0,0.0,75,0.00,,,0.00,open2300-1.11,2013-02-21 15:47:00,
2013-02-21 17:52:00,51.1,43.4,28.61,NNE,22,0.0,0.4,75,0.00,,,0.00,open2300-1.11,2013-02-21 15:52:00,
2013-02-21 17:57:00,50.9,42.9,28.61,NNE,22,0.0,0.0,74,0.00,,,0.00,open2300-1.11,2013-02-21 15:57:00,
2013-02-21 18:02:00,50.9,42.9,28.60,NNE,22,0.0,0.0,74,0.00,,,0.00,open2300-1.11,2013-02-21 16:02:00,
2013-02-21 18:12:00,50.9,42.9,28.60,NNE,22,0.0,0.0,74,0.00,,,0.00,open2300-1.11,2013-02-21 16:12:00,
2013-02-21 18:17:00,50.7,43.1,28.60,NNE,22,0.0,0.0,75,0.00,,,0.00,open2300-1.11,2013-02-21 16:17:00,
2013-02-21 18:22:00,50.7,43.1,28.60,NNE,22,0.0,0.0,75,0.00,,,0.00,open2300-1.11,2013-02-21 16:22:00,
2013-02-21 18:27:00,50.7,43.1,28.59,NNE,22,0.0,0.0,75,0.00,,,0.00,open2300-1.11,2013-02-21 16:27:00,
2013-02-21 18:32:00,50.7,43.1,28.60,NNE,22,0.0,0.0,75,0.00,,,0.00,open2300-1.11,2013-02-21 16:32:00,
2013-02-21 18:37:00,50.7,43.1,28.59,NNE,22,0.0,0.0,75,0.00,,,0.00,open2300-1.11,2013-02-21 16:37:00,
2013-02-21 18:47:00,50.7,43.1,28.59,NNE,22,0.0,0.0,75,0.00,,,0.00,open2300-1.11,2013-02-21 16:47:00,
2013-02-21 18:52:00,50.5,42.9,28.59,NNE,22,0.0,0.0,75,0.00,,,0.00,open2300-1.11,2013-02-21 16:52:00,
2013-02-21 18:57:00,50.7,43.1,28.60,NNE,22,0.0,0.0,75,0.00,,,0.00,open2300-1.11,2013-02-21 16:57:00,
2013-02-21 19:02:00,50.5,42.9,28.60,NNE,22,0.0,0.0,75,0.00,,,0.00,open2300-1.11,2013-02-21 17:02:00,
2013-02-21 19:07:00,50.5,42.9,28.60,NNE,22,0.0,0.0,75,0.00,,,0.00,open2300-1.11,2013-02-21 17:07:00,
2013-02-21 19:17:00,50.7,43.1,28.60,NNE,22,0.0,0.0,75,0.00,,,0.00,open2300-1.11,2013-02-21 17:17:00,
2013-02-21 19:22:00,50.7,43.1,28.60,NNE,22,0.0,0.0,75,0.00,,,0.00,open2300-1.11,2013-02-21 17:22:00,
2013-02-21 19:27:00,50.7,43.1,28.59,NNE,22,0.0,0.0,75,0.00,,,0.00,open2300-1.11,2013-02-21 17:27:00,
2013-02-21 19:32:00,50.7,43.4,28.59,NNE,22,0.0,0.0,76,0.00,,,0.00,open2300-1.11,2013-02-21 17:32:00,
2013-02-21 19:37:00,50.7,43.4,28.59,NNE,22,0.0,2.2,76,0.00,,,0.00,open2300-1.11,2013-02-21 17:37:00,
2013-02-21 19:42:00,50.7,43.4,28.59,NNE,22,0.0,0.0,76,0.00,,,0.00,open2300-1.11,2013-02-21 17:42:00,
2013-02-21 19:47:00,50.7,43.4,28.59,NNE,22,0.0,0.0,76,0.00,,,0.00,open2300-1.11,2013-02-21 17:47:00,
2013-02-21 19:52:00,50.7,43.4,28.59,NNE,22,0.0,0.0,76,0.00,,,0.00,open2300-1.11,2013-02-21 17:52:00,
2013-02-21 20:02:00,50.7,43.4,28.59,NNE,22,0.0,0.0,76,0.00,,,0.00,open2300-1.11,2013-02-21 18:02:00,
2013-02-21 20:07:00,50.7,43.4,28.59,NNE,22,0.0,0.0,76,0.00,,,0.00,open2300-1.11,2013-02-21 18:07:00,
2013-02-21 20:17:00,50.7,43.4,28.58,NNE,22,0.0,0.0,76,0.00,,,0.00,open2300-1.11,2013-02-21 18:17:00,
2013-02-21 20:22:00,50.7,43.4,28.58,NNE,22,0.0,0.0,76,0.00,,,0.00,open2300-1.11,2013-02-21 18:22:00,
2013-02-21 20:27:00,50.7,43.4,28.57,NNE,22,0.0,0.0,76,0.00,,,0.00,open2300-1.11,2013-02-21 18:27:00,
2013-02-21 20:33:00,50.7,43.4,28.57,NNE,22,0.0,0.0,76,0.00,,,0.00,open2300-1.11,2013-02-21 18:33:00,
2013-02-21 20:42:00,50.7,43.4,28.57,NNE,22,0.0,0.0,76,0.00,,,0.00,open2300-1.11,2013-02-21 18:42:00,
2013-02-21 20:47:00,50.7,43.4,28.57,NNE,22,0.0,0.0,76,0.00,,,0.00,open2300-1.11,2013-02-21 18:47:00,
2013-02-21 20:52:00,50.7,43.4,28.57,NE,45,0.0,0.0,76,0.00,,,0.00,open2300-1.11,2013-02-21 18:52:00,
2013-02-21 20:57:00,50.7,43.4,28.58,NNE,22,0.0,0.0,76,0.00,,,0.00,open2300-1.11,2013-02-21 18:57:00,
2013-02-21 21:02:00,50.7,43.4,28.57,SSW,202,0.0,0.0,76,0.00,,,0.00,open2300-1.11,2013-02-21 19:02:00,
2013-02-21 21:07:00,50.7,43.4,28.57,South,180,0.0,0.0,76,0.00,,,0.00,open2300-1.11,2013-02-21 19:07:00,
2013-02-21 21:17:00,50.7,43.8,28.57,South,180,0.0,0.0,77,0.00,,,0.00,open2300-1.11,2013-02-21 19:17:00,
2013-02-21 21:27:00,50.7,43.8,28.56,NE,45,0.0,0.0,77,0.00,,,0.00,open2300-1.11,2013-02-21 19:27:00,
2013-02-21 21:32:00,50.5,43.9,28.54,NE,45,0.0,0.0,78,0.00,,,0.00,open2300-1.11,2013-02-21 19:32:00,
2013-02-21 21:37:00,50.4,43.7,28.54,NNE,22,0.0,0.0,78,0.00,,,0.00,open2300-1.11,2013-02-21 19:37:00,
2013-02-21 21:47:00,50.4,43.7,28.54,SE,135,0.0,0.0,78,0.00,,,0.00,open2300-1.11,2013-02-21 19:47:00,
2013-02-21 21:52:00,50.4,43.7,28.53,SE,135,0.0,0.0,78,0.00,,,0.00,open2300-1.11,2013-02-21 19:52:00,
2013-02-21 21:57:00,50.5,43.9,28.53,SSE,157,0.0,0.0,78,0.00,,,0.00,open2300-1.11,2013-02-21 19:57:00,
2013-02-21 22:07:00,50.5,44.3,28.53,SSE,157,0.0,0.0,79,0.00,,,0.00,open2300-1.11,2013-02-21 20:07:00,
2013-02-21 22:12:00,50.5,44.3,28.53,SSE,157,0.0,0.0,79,0.00,,,0.00,open2300-1.11,2013-02-21 20:12:00,
2013-02-21 22:17:00,50.5,44.3,28.53,SSE,157,0.0,0.0,79,0.00,,,0.00,open2300-1.11,2013-02-21 20:17:00,
2013-02-21 22:22:00,50.5,44.3,28.53,SSE,157,0.0,0.0,79,0.00,,,0.00,open2300-1.11,2013-02-21 20:22:00,
2013-02-21 22:28:00,50.5,44.6,28.53,SSE,157,0.0,0.0,80,0.00,,,0.00,open2300-1.11,2013-02-21 20:28:00,
2013-02-21 22:37:00,50.5,44.6,28.53,SSE,157,0.0,0.0,80,0.00,,,0.00,open2300-1.11,2013-02-21 20:37:00,
2013-02-21 22:42:00,50.4,44.7,28.52,SSE,157,0.0,0.0,81,0.00,,,0.00,open2300-1.11,2013-02-21 20:42:00,
2013-02-21 22:47:00,50.2,44.5,28.52,South,180,0.0,0.0,81,0.00,,,0.00,open2300-1.11,2013-02-21 20:47:00,
2013-02-21 22:57:00,50.2,44.8,28.51,NNE,22,0.0,0.0,82,0.00,,,0.00,open2300-1.11,2013-02-21 20:57:00,
2013-02-21 23:02:00,50.2,45.2,28.51,West,270,0.0,0.0,83,0.00,,,0.00,open2300-1.11,2013-02-21 21:02:00,
2013-02-21 23:07:00,50.2,45.2,28.51,North,0,0.0,0.0,83,0.00,,,0.00,open2300-1.11,2013-02-21 21:07:00,
2013-02-21 23:12:00,50.2,45.2,28.51,North,0,0.0,0.0,83,0.00,,,0.00,open2300-1.11,2013-02-21 21:12:00,
2013-02-21 23:17:00,50.4,45.6,28.50,North,0,0.0,0.0,84,0.00,,,0.00,open2300-1.11,2013-02-21 21:17:00,
2013-02-21 23:27:00,50.4,45.6,28.49,North,0,0.0,0.0,84,0.00,,,0.00,open2300-1.11,2013-02-21 21:27:00,
2013-02-21 23:32:00,50.5,46.1,28.49,North,0,0.0,0.0,85,0.00,,,0.00,open2300-1.11,2013-02-21 21:32:00,
2013-02-21 23:37:00,50.5,46.1,28.49,North,0,0.0,0.0,85,0.00,,,0.00,open2300-1.11,2013-02-21 21:37:00,
2013-02-21 23:42:00,50.5,46.1,28.48,North,0,0.0,0.0,85,0.00,,,0.00,open2300-1.11,2013-02-21 21:42:00,
2013-02-21 23:47:00,50.7,46.3,28.47,SW,225,0.0,0.0,85,0.00,,,0.00,open2300-1.11,2013-02-21 21:47:00,
2013-02-21 23:52:00,50.7,46.3,28.47,North,0,0.0,0.0,85,0.00,,,0.00,open2300-1.11,2013-02-21 21:52:00,
2013-02-21 23:57:00,50.7,46.3,28.46,ENE,67,0.0,0.0,85,0.00,,,0.00,open2300-1.11,2013-02-21 21:57:00,